Time;durP1;ratioP1;P1;durP2;ratioP2;P2;SDS_P1;SDS_P2;PMS_P1;PMS_P2;Temp;Humidity;BMP_temperature;BMP_pressure;BME280_temperature;BME280_humidity;BME280_pressure;Samples;Min_cycle;Max_cycle;Signal;HPM_P1;HPM_P2
2022/05/25 00:00:16;;;;;;;1.20;1.10;;;;;;;;;;5061272;28;20228;-83
2022/05/25 00:02:43;;;;;;;0.77;0.77;;;;;;;;;;5060905;28;20228;-82
2022/05/25 00:05:12;;;;;;;1.02;1.02;;;;;;;;;;5060398;28;20221;-80
2022/05/25 00:07:40;;;;;;;0.80;0.80;;;;;;;;;;5059877;28;20194;-81
2022/05/25 00:10:08;;;;;;;0.70;0.70;;;;;;;;;;5060039;28;20212;-81
2022/05/25 00:12:35;;;;;;;0.80;0.80;;;;;;;;;;5059664;28;20221;-83
2022/05/25 00:15:06;;;;;;;0.82;0.82;;;;;;;;;;5059870;28;20271;-82
2022/05/25 00:17:33;;;;;;;1.35;0.80;;;;;;;;;;5060390;28;20647;-82
2022/05/25 00:20:00;;;;;;;2.28;0.80;;;;;;;;;;5060473;28;20201;-83
2022/05/25 00:22:29;;;;;;;0.77;0.77;;;;;;;;;;5059726;28;20228;-84
2022/05/25 00:24:58;;;;;;;1.15;0.98;;;;;;;;;;5061167;28;20206;-84
2022/05/25 00:27:25;;;;;;;0.70;0.70;;;;;;;;;;5060958;28;20202;-82
2022/05/25 00:29:52;;;;;;;0.63;0.63;;;;;;;;;;5060124;28;20209;-82
2022/05/25 00:32:22;;;;;;;0.70;0.70;;;;;;;;;;5060242;28;20233;-81
2022/05/25 00:34:49;;;;;;;1.33;1.33;;;;;;;;;;5060858;28;20209;-82
2022/05/25 00:37:17;;;;;;;0.80;0.80;;;;;;;;;;5060919;28;20204;-81
2022/05/25 00:39:44;;;;;;;0.98;0.82;;;;;;;;;;5061224;28;20704;-81
2022/05/25 00:42:12;;;;;;;1.30;0.95;;;;;;;;;;5061215;28;20229;-80
2022/05/25 00:44:39;;;;;;;1.10;1.00;;;;;;;;;;5060496;28;20712;-81
2022/05/25 00:47:08;;;;;;;0.80;0.80;;;;;;;;;;5061228;28;20209;-83
2022/05/25 00:49:37;;;;;;;0.98;0.98;;;;;;;;;;5061831;28;20212;-83
2022/05/25 00:52:07;;;;;;;1.10;1.00;;;;;;;;;;5062556;28;20229;-84
2022/05/25 00:54:40;;;;;;;0.88;0.82;;;;;;;;;;5064117;28;20182;-83
2022/05/25 00:57:10;;;;;;;1.02;0.90;;;;;;;;;;5064118;28;20193;-82
2022/05/25 00:59:47;;;;;;;2.05;0.98;;;;;;;;;;5062711;28;20581;-84
2022/05/25 01:02:16;;;;;;;1.08;1.05;;;;;;;;;;5062789;28;20758;-84
2022/05/25 01:04:47;;;;;;;1.00;1.00;;;;;;;;;;5065162;28;20213;-85
2022/05/25 01:07:29;;;;;;;1.05;1.05;;;;;;;;;;5062564;28;20217;-84
2022/05/25 01:10:11;;;;;;;1.73;0.88;;;;;;;;;;5064544;28;20581;-84
2022/05/25 01:12:55;;;;;;;0.90;0.90;;;;;;;;;;5064285;28;20233;-82
2022/05/25 01:15:28;;;;;;;0.98;0.98;;;;;;;;;;5065064;28;20177;-82
2022/05/25 01:18:13;;;;;;;2.55;1.08;;;;;;;;;;5063836;28;20174;-82
2022/05/25 01:20:46;;;;;;;0.60;0.60;;;;;;;;;;5063656;28;20242;-80
2022/05/25 01:23:49;;;;;;;1.10;1.00;;;;;;;;;;5062882;28;20178;-81
2022/05/25 01:26:39;;;;;;;0.73;0.73;;;;;;;;;;5063071;28;20201;-80
2022/05/25 01:29:50;;;;;;;1.00;0.90;;;;;;;;;;5062459;28;20182;-82
2022/05/25 01:32:27;;;;;;;0.70;0.70;;;;;;;;;;5060456;28;20224;-83
2022/05/25 01:34:59;;;;;;;1.73;0.82;;;;;;;;;;5060457;28;20186;-81
2022/05/25 01:37:34;;;;;;;1.00;0.90;;;;;;;;;;5060586;28;20244;-85
2022/05/25 01:40:08;;;;;;;0.90;0.90;;;;;;;;;;5060016;28;20618;-83
2022/05/25 01:42:41;;;;;;;1.08;0.98;;;;;;;;;;5059898;28;20216;-85
2022/05/25 01:45:11;;;;;;;1.92;1.23;;;;;;;;;;5060337;28;20194;-84
2022/05/25 01:47:41;;;;;;;1.13;1.02;;;;;;;;;;5059034;28;20204;-83
2022/05/25 01:50:11;;;;;;;0.60;0.60;;;;;;;;;;5060201;28;20213;-84
2022/05/25 01:52:44;;;;;;;0.80;0.80;;;;;;;;;;5059943;28;20252;-84
2022/05/25 01:55:15;;;;;;;0.60;0.50;;;;;;;;;;5060168;28;20528;-84
2022/05/25 01:57:47;;;;;;;1.08;0.82;;;;;;;;;;5060025;28;20185;-84
2022/05/25 02:00:30;;;;;;;1.02;0.85;;;;;;;;;;5059621;28;20816;-85
2022/05/25 02:06:20;;;;;;;0.73;0.70;;;;;;;;;;5059641;28;20188;-85
2022/05/25 02:09:13;;;;;;;1.77;0.65;;;;;;;;;;5059170;28;20550;-84
2022/05/25 02:11:43;;;;;;;0.73;0.73;;;;;;;;;;5060302;28;20239;-83
2022/05/25 02:14:25;;;;;;;0.60;0.60;;;;;;;;;;5059927;28;20206;-82
2022/05/25 02:17:00;;;;;;;0.80;0.80;;;;;;;;;;5060745;28;20623;-83
2022/05/25 02:19:37;;;;;;;0.60;0.60;;;;;;;;;;5060840;28;20190;-82
2022/05/25 02:22:11;;;;;;;0.90;0.88;;;;;;;;;;5061000;28;20220;-84
2022/05/25 02:24:43;;;;;;;0.77;0.77;;;;;;;;;;5060807;28;20186;-82
2022/05/25 02:27:16;;;;;;;0.77;0.77;;;;;;;;;;5061169;28;20186;-83
2022/05/25 02:29:47;;;;;;;0.60;0.60;;;;;;;;;;5061504;28;20642;-83
2022/05/25 02:32:19;;;;;;;0.88;0.88;;;;;;;;;;5061100;28;20229;-82
2022/05/25 02:34:50;;;;;;;0.80;0.80;;;;;;;;;;5061252;28;20549;-84
2022/05/25 02:37:22;;;;;;;0.70;0.70;;;;;;;;;;5061555;28;20595;-83
2022/05/25 02:39:51;;;;;;;0.73;0.73;;;;;;;;;;5060538;28;20677;-84
2022/05/25 02:42:19;;;;;;;3.42;2.63;;;;;;;;;;5060933;28;20226;-84
2022/05/25 02:44:46;;;;;;;0.80;0.80;;;;;;;;;;5061590;28;20202;-82
2022/05/25 02:47:15;;;;;;;0.90;0.90;;;;;;;;;;5061196;28;20252;-82
2022/05/25 02:49:43;;;;;;;0.88;0.88;;;;;;;;;;5060373;28;20194;-84
2022/05/25 02:52:11;;;;;;;0.90;0.90;;;;;;;;;;5060195;28;20812;-84
2022/05/25 02:54:39;;;;;;;0.80;0.80;;;;;;;;;;5060153;28;20210;-84
2022/05/25 02:57:08;;;;;;;0.80;0.80;;;;;;;;;;5060202;28;20213;-84
2022/05/25 02:59:36;;;;;;;0.80;0.80;;;;;;;;;;5060448;28;20202;-85
2022/05/25 03:02:04;;;;;;;0.80;0.80;;;;;;;;;;5060547;28;20267;-84
2022/05/25 03:04:34;;;;;;;1.13;1.10;;;;;;;;;;5060155;28;20216;-84
2022/05/25 03:07:01;;;;;;;1.70;1.63;;;;;;;;;;5060617;28;20201;-84
2022/05/25 03:09:29;;;;;;;0.82;0.82;;;;;;;;;;5060986;28;20193;-83
2022/05/25 03:11:56;;;;;;;0.85;0.85;;;;;;;;;;5076355;22;20809;-83
2022/05/25 03:14:24;;;;;;;1.00;1.00;;;;;;;;;;5078274;28;20216;-84
2022/05/25 03:16:51;;;;;;;0.70;0.70;;;;;;;;;;5077808;28;20201;-84
2022/05/25 03:19:19;;;;;;;0.90;0.90;;;;;;;;;;5077672;28;20204;-84
2022/05/25 03:21:54;;;;;;;1.17;0.85;;;;;;;;;;5077266;28;20268;-84
2022/05/25 03:24:21;;;;;;;0.98;0.98;;;;;;;;;;5078113;28;20193;-84
2022/05/25 03:26:49;;;;;;;1.30;1.13;;;;;;;;;;5076925;28;20189;-83
2022/05/25 03:29:18;;;;;;;1.10;1.10;;;;;;;;;;5076422;28;20653;-83
2022/05/25 03:31:45;;;;;;;1.13;1.13;;;;;;;;;;5077145;28;20221;-82
2022/05/25 03:34:13;;;;;;;1.55;1.00;;;;;;;;;;5077217;28;20232;-83
2022/05/25 03:36:40;;;;;;;1.52;1.42;;;;;;;;;;5077065;28;20189;-83
2022/05/25 03:39:09;;;;;;;0.75;0.75;;;;;;;;;;5077031;28;20199;-83
2022/05/25 03:41:36;;;;;;;0.75;0.75;;;;;;;;;;5077177;28;20598;-83
2022/05/25 03:44:04;;;;;;;1.10;1.10;;;;;;;;;;5077309;28;20203;-82
2022/05/25 03:46:32;;;;;;;1.10;1.08;;;;;;;;;;5076874;28;20197;-86
2022/05/25 03:48:59;;;;;;;1.00;1.00;;;;;;;;;;5077364;28;20223;-81
2022/05/25 03:51:27;;;;;;;0.85;0.85;;;;;;;;;;5075884;28;20228;-83
2022/05/25 03:53:54;;;;;;;0.77;0.77;;;;;;;;;;5075896;28;20748;-82
2022/05/25 03:56:23;;;;;;;0.70;0.70;;;;;;;;;;5076398;28;20208;-83
2022/05/25 03:58:50;;;;;;;0.80;0.80;;;;;;;;;;5075420;28;20201;-83
2022/05/25 04:01:17;;;;;;;0.98;0.98;;;;;;;;;;5076190;28;20592;-83
2022/05/25 04:03:44;;;;;;;1.98;1.88;;;;;;;;;;5076079;28;20201;-82
2022/05/25 04:06:12;;;;;;;1.27;1.15;;;;;;;;;;5077003;28;20224;-82
2022/05/25 04:08:39;;;;;;;1.27;1.17;;;;;;;;;;5075511;28;20258;-82
2022/05/25 04:11:07;;;;;;;0.82;0.82;;;;;;;;;;5075952;28;20201;-82
2022/05/25 04:13:36;;;;;;;1.25;1.00;;;;;;;;;;5075387;28;20228;-82
2022/05/25 04:16:03;;;;;;;0.98;0.98;;;;;;;;;;5076451;28;20212;-83
2022/05/25 04:18:32;;;;;;;0.90;0.90;;;;;;;;;;5074812;28;20197;-82
2022/05/25 04:21:00;;;;;;;0.95;0.90;;;;;;;;;;5075690;28;20227;-82
2022/05/25 04:23:28;;;;;;;0.85;0.85;;;;;;;;;;5074643;28;20569;-83
2022/05/25 04:25:56;;;;;;;1.15;1.10;;;;;;;;;;5075724;28;20663;-81
2022/05/25 04:28:23;;;;;;;0.88;0.88;;;;;;;;;;5077500;28;20560;-81
2022/05/25 04:30:52;;;;;;;1.65;1.02;;;;;;;;;;5077410;28;20201;-81
2022/05/25 04:33:19;;;;;;;1.25;1.15;;;;;;;;;;5076442;28;20414;-82
2022/05/25 04:35:46;;;;;;;0.60;0.60;;;;;;;;;;5077407;28;20250;-81
2022/05/25 04:38:15;;;;;;;1.05;1.05;;;;;;;;;;5078650;28;20201;-82
2022/05/25 04:40:45;;;;;;;1.02;1.00;;;;;;;;;;5078215;28;20208;-84
2022/05/25 04:43:15;;;;;;;1.00;1.00;;;;;;;;;;5078060;28;20238;-83
2022/05/25 04:45:46;;;;;;;1.30;1.20;;;;;;;;;;5078628;28;20197;-82
2022/05/25 04:48:16;;;;;;;0.95;0.95;;;;;;;;;;5077259;28;20235;-84
2022/05/25 04:50:46;;;;;;;0.90;0.90;;;;;;;;;;5077503;28;20599;-82
2022/05/25 04:53:16;;;;;;;0.80;0.80;;;;;;;;;;5076761;28;20248;-83
2022/05/25 04:58:32;;;;;;;1.40;1.30;;;;;;;;;;5096478;28;20246;-84
2022/05/25 05:00:59;;;;;;;1.30;1.20;;;;;;;;;;5097022;28;20185;-83
2022/05/25 05:03:29;;;;;;;1.60;1.50;;;;;;;;;;5097194;28;20200;-83
2022/05/25 05:05:58;;;;;;;1.23;1.00;;;;;;;;;;5097047;28;20200;-83
2022/05/25 05:08:26;;;;;;;1.25;1.20;;;;;;;;;;5097455;28;20578;-82
2022/05/25 05:10:54;;;;;;;3.08;1.65;;;;;;;;;;5096569;28;20211;-81
2022/05/25 05:13:22;;;;;;;1.17;1.10;;;;;;;;;;5096512;28;20640;-81
2022/05/25 05:15:52;;;;;;;1.65;1.33;;;;;;;;;;5097916;28;20220;-80
2022/05/25 05:18:21;;;;;;;1.02;1.02;;;;;;;;;;5097576;28;20196;-80
2022/05/25 05:20:50;;;;;;;0.98;0.98;;;;;;;;;;5097223;28;20205;-80
2022/05/25 05:23:17;;;;;;;0.93;0.93;;;;;;;;;;5097694;28;20227;-81
2022/05/25 05:25:44;;;;;;;0.80;0.80;;;;;;;;;;5098360;28;20196;-82
2022/05/25 05:28:15;;;;;;;0.95;0.95;;;;;;;;;;5098594;28;20196;-81
2022/05/25 05:30:52;;;;;;;0.80;0.80;;;;;;;;;;5099434;28;20181;-82
2022/05/25 05:33:19;;;;;;;0.90;0.90;;;;;;;;;;5099002;28;20268;-81
2022/05/25 05:35:50;;;;;;;0.95;0.95;;;;;;;;;;5098823;28;20580;-82
2022/05/25 05:38:18;;;;;;;0.75;0.75;;;;;;;;;;5097868;28;20176;-82
2022/05/25 05:40:46;;;;;;;0.90;0.90;;;;;;;;;;5098458;28;20201;-82
2022/05/25 05:43:14;;;;;;;1.25;0.93;;;;;;;;;;5098496;28;20603;-82
2022/05/25 05:45:44;;;;;;;0.90;0.90;;;;;;;;;;5098093;28;20200;-81
2022/05/25 05:48:14;;;;;;;1.55;1.20;;;;;;;;;;5098251;28;20213;-81
2022/05/25 05:50:43;;;;;;;1.35;0.95;;;;;;;;;;5099115;28;20207;-81
2022/05/25 05:53:13;;;;;;;1.20;1.20;;;;;;;;;;5098303;28;20221;-80
2022/05/25 05:55:42;;;;;;;1.35;1.25;;;;;;;;;;5098638;28;20224;-80
2022/05/25 05:58:09;;;;;;;0.88;0.88;;;;;;;;;;5098413;28;20200;-81
2022/05/25 06:00:36;;;;;;;1.30;1.20;;;;;;;;;;5098376;28;20272;-81
2022/05/25 06:03:04;;;;;;;1.20;1.00;;;;;;;;;;5097949;28;20227;-82
2022/05/25 06:05:32;;;;;;;1.27;1.27;;;;;;;;;;5098017;28;20207;-81
2022/05/25 06:08:08;;;;;;;1.40;1.30;;;;;;;;;;5097784;28;20596;-82
2022/05/25 06:10:37;;;;;;;1.40;1.30;;;;;;;;;;5097933;28;20617;-80
2022/05/25 06:13:04;;;;;;;1.10;1.10;;;;;;;;;;5096864;28;20310;-81
2022/05/25 06:21:02;;;;;;;1.00;1.00;;;;;;;;;;5097089;28;20195;-81
2022/05/25 06:23:29;;;;;;;1.35;1.25;;;;;;;;;;5085265;28;20193;-81
2022/05/25 06:25:58;;;;;;;2.83;2.63;;;;;;;;;;5076150;28;20205;-81
2022/05/25 06:28:25;;;;;;;1.40;1.30;;;;;;;;;;5076613;28;20200;-81
2022/05/25 06:30:53;;;;;;;1.25;1.15;;;;;;;;;;5076664;28;20204;-81
2022/05/25 06:33:21;;;;;;;1.35;1.25;;;;;;;;;;5076848;28;20211;-81
2022/05/25 06:35:49;;;;;;;2.15;1.30;;;;;;;;;;5076701;28;20217;-81
2022/05/25 06:38:17;;;;;;;1.20;1.10;;;;;;;;;;5076054;28;20236;-81
2022/05/25 06:40:44;;;;;;;1.42;1.33;;;;;;;;;;5075949;28;20212;-81
2022/05/25 06:43:13;;;;;;;1.38;1.27;;;;;;;;;;5075367;28;20232;-81
2022/05/25 06:45:40;;;;;;;1.35;1.25;;;;;;;;;;5076235;28;20208;-82
2022/05/25 06:48:08;;;;;;;1.40;1.30;;;;;;;;;;5075675;28;20208;-82
2022/05/25 06:50:36;;;;;;;2.17;1.40;;;;;;;;;;5076689;28;20212;-82
2022/05/25 06:53:04;;;;;;;1.70;1.60;;;;;;;;;;5075981;28;20714;-82
2022/05/25 06:55:31;;;;;;;1.60;1.50;;;;;;;;;;5075791;28;20235;-82
2022/05/25 06:57:59;;;;;;;1.58;1.48;;;;;;;;;;5077435;28;20205;-82
2022/05/25 07:00:27;;;;;;;1.70;1.42;;;;;;;;;;5075483;28;20212;-82
2022/05/25 07:02:55;;;;;;;1.30;1.20;;;;;;;;;;5075912;28;20220;-82
2022/05/25 07:05:22;;;;;;;1.50;1.40;;;;;;;;;;5076609;28;20211;-82
2022/05/25 07:07:49;;;;;;;1.75;1.60;;;;;;;;;;5077132;28;20708;-82
2022/05/25 07:10:16;;;;;;;1.92;1.73;;;;;;;;;;5077059;28;20201;-82
2022/05/25 07:12:44;;;;;;;1.80;1.70;;;;;;;;;;5076135;28;20229;-82
2022/05/25 07:15:12;;;;;;;1.88;1.75;;;;;;;;;;5076358;28;20228;-81
2022/05/25 07:17:41;;;;;;;2.78;1.20;;;;;;;;;;5076995;28;20205;-81
2022/05/25 07:20:09;;;;;;;1.50;1.30;;;;;;;;;;5077328;28;20201;-82
2022/05/25 07:22:39;;;;;;;1.50;1.40;;;;;;;;;;5076338;28;20228;-82
2022/05/25 07:25:07;;;;;;;1.58;1.38;;;;;;;;;;5077111;28;20614;-82
2022/05/25 07:27:34;;;;;;;1.30;1.20;;;;;;;;;;5076113;28;20224;-82
2022/05/25 07:30:02;;;;;;;1.05;1.05;;;;;;;;;;5076977;28;20212;-82
2022/05/25 07:32:29;;;;;;;1.25;1.15;;;;;;;;;;5076355;28;20601;-82
2022/05/25 07:35:04;;;;;;;2.58;1.25;;;;;;;;;;5077184;28;20250;-84
2022/05/25 07:37:38;;;;;;;1.35;1.20;;;;;;;;;;5077111;28;20610;-82
2022/05/25 07:40:09;;;;;;;1.70;1.60;;;;;;;;;;5076833;28;20201;-83
2022/05/25 07:42:38;;;;;;;1.63;1.52;;;;;;;;;;5077028;28;20564;-84
2022/05/25 07:45:06;;;;;;;2.10;1.83;;;;;;;;;;5077459;28;20204;-83
2022/05/25 07:47:34;;;;;;;1.52;1.25;;;;;;;;;;5076899;28;20211;-83
2022/05/25 07:50:04;;;;;;;1.52;1.42;;;;;;;;;;5076589;28;20205;-82
2022/05/25 07:52:35;;;;;;;1.17;1.17;;;;;;;;;;5076229;28;20256;-82
2022/05/25 07:55:03;;;;;;;1.40;1.25;;;;;;;;;;5074986;28;20235;-84
2022/05/25 07:57:30;;;;;;;1.33;1.00;;;;;;;;;;5076350;28;20235;-82
2022/05/25 07:59:58;;;;;;;1.30;1.20;;;;;;;;;;5076540;28;20204;-83
2022/05/25 08:08:02;;;;;;;1.45;1.33;;;;;;;;;;5083145;28;20653;-82
2022/05/25 08:10:30;;;;;;;1.75;1.63;;;;;;;;;;5082241;28;20193;-83
2022/05/25 08:12:59;;;;;;;1.23;1.13;;;;;;;;;;5081944;28;20251;-82
2022/05/25 08:15:28;;;;;;;1.20;1.10;;;;;;;;;;5082778;28;20204;-82
2022/05/25 08:17:56;;;;;;;0.90;0.90;;;;;;;;;;5082311;28;20630;-83
2022/05/25 08:20:25;;;;;;;0.70;0.70;;;;;;;;;;5082329;28;20228;-82
2022/05/25 08:22:52;;;;;;;1.45;0.98;;;;;;;;;;5081491;28;20221;-82
2022/05/25 08:25:20;;;;;;;2.55;1.30;;;;;;;;;;5082086;28;20633;-83
2022/05/25 08:27:48;;;;;;;1.10;1.10;;;;;;;;;;5082917;28;20204;-83
2022/05/25 08:30:20;;;;;;;1.10;1.00;;;;;;;;;;5082958;28;20254;-83
2022/05/25 08:32:48;;;;;;;1.48;1.10;;;;;;;;;;5083315;28;20220;-84
2022/05/25 08:35:15;;;;;;;1.52;1.33;;;;;;;;;;5082722;28;20224;-83
2022/05/25 08:37:44;;;;;;;2.08;1.00;;;;;;;;;;5082910;28;20224;-83
2022/05/25 08:40:17;;;;;;;1.77;0.90;;;;;;;;;;5082512;28;20200;-82
2022/05/25 08:42:50;;;;;;;1.42;1.33;;;;;;;;;;5080780;28;20284;-81
2022/05/25 08:45:18;;;;;;;0.93;0.90;;;;;;;;;;5080249;28;20238;-82
2022/05/25 08:47:51;;;;;;;4.43;0.90;;;;;;;;;;5080199;28;20197;-81
2022/05/25 08:50:18;;;;;;;0.90;0.90;;;;;;;;;;5082269;28;20185;-82
2022/05/25 08:52:48;;;;;;;0.70;0.70;;;;;;;;;;5080683;28;20224;-81
2022/05/25 08:55:44;;;;;;;1.05;1.00;;;;;;;;;;5081776;28;20209;-81
2022/05/25 08:58:12;;;;;;;1.40;1.10;;;;;;;;;;5082740;28;20452;-82
2022/05/25 09:00:41;;;;;;;0.82;0.82;;;;;;;;;;5082495;28;20200;-81
2022/05/25 09:03:16;;;;;;;0.90;0.90;;;;;;;;;;5080895;28;20270;-81
2022/05/25 09:05:47;;;;;;;0.60;0.60;;;;;;;;;;5081687;28;20181;-82
2022/05/25 09:08:21;;;;;;;1.35;1.25;;;;;;;;;;5080982;28;20193;-81
2022/05/25 09:10:54;;;;;;;1.40;0.82;;;;;;;;;;5082544;28;20238;-81
2022/05/25 09:13:29;;;;;;;1.38;1.00;;;;;;;;;;5047800;22;20308;-84
2022/05/25 09:18:51;;;;;;;1.17;1.10;;;;;;;;;;5041007;28;20256;-84
2022/05/25 09:21:21;;;;;;;0.93;0.93;;;;;;;;;;5039744;28;20209;-86
2022/05/25 09:23:51;;;;;;;1.33;1.23;;;;;;;;;;5039130;28;20210;-86
2022/05/25 09:26:19;;;;;;;0.95;0.95;;;;;;;;;;5050804;28;20229;-84
2022/05/25 09:28:50;;;;;;;0.80;0.80;;;;;;;;;;5051760;28;20198;-86
2022/05/25 09:31:27;;;;;;;1.35;1.30;;;;;;;;;;5058807;28;20541;-86
2022/05/25 09:34:00;;;;;;;1.27;1.17;;;;;;;;;;5057925;28;20657;-85
2022/05/25 09:36:31;;;;;;;2.22;1.98;;;;;;;;;;5058191;28;20654;-85
2022/05/25 09:39:06;;;;;;;1.20;1.10;;;;;;;;;;5056837;28;20201;-85
2022/05/25 09:41:34;;;;;;;1.30;1.30;;;;;;;;;;5057110;28;20588;-86
2022/05/25 09:44:06;;;;;;;0.68;0.68;;;;;;;;;;5057404;28;20571;-86
2022/05/25 09:46:38;;;;;;;1.27;0.95;;;;;;;;;;5057755;28;20201;-85
2022/05/25 09:49:08;;;;;;;1.23;0.93;;;;;;;;;;5057724;28;20201;-85
2022/05/25 09:51:41;;;;;;;2.42;1.13;;;;;;;;;;5056449;28;20267;-85
2022/05/25 09:54:14;;;;;;;1.60;1.50;;;;;;;;;;5055837;28;20225;-85
2022/05/25 09:56:46;;;;;;;1.00;0.80;;;;;;;;;;5041294;28;20221;-86
2022/05/25 09:59:22;;;;;;;2.05;0.90;;;;;;;;;;5037403;28;20199;-85
2022/05/25 10:01:52;;;;;;;0.75;0.75;;;;;;;;;;5037432;28;20248;-85
2022/05/25 10:04:39;;;;;;;0.57;0.57;;;;;;;;;;5038039;28;20654;-86
2022/05/25 10:07:20;;;;;;;0.80;0.80;;;;;;;;;;5037974;28;20198;-85
2022/05/25 10:09:51;;;;;;;0.60;0.60;;;;;;;;;;5036944;28;20202;-85
2022/05/25 10:12:33;;;;;;;0.60;0.60;;;;;;;;;;5036021;28;20668;-87
2022/05/25 10:15:03;;;;;;;1.13;1.05;;;;;;;;;;5036390;28;20206;-86
2022/05/25 10:17:36;;;;;;;0.88;0.82;;;;;;;;;;5036338;28;20229;-85
2022/05/25 10:20:07;;;;;;;0.50;0.50;;;;;;;;;;5037423;28;20213;-84
2022/05/25 10:22:38;;;;;;;0.57;0.57;;;;;;;;;;5036362;28;20272;-84
2022/05/25 10:25:13;;;;;;;1.40;1.30;;;;;;;;;;5038814;28;20213;-84
2022/05/25 10:27:44;;;;;;;0.63;0.63;;;;;;;;;;5056453;28;20213;-87
2022/05/25 10:38:44;;;;;;;0.80;0.80;;;;;;;;;;5056458;28;20231;-85
2022/05/25 10:44:09;;;;;;;0.70;0.70;;;;;;;;;;5056437;28;20205;-85
2022/05/25 10:46:38;;;;;;;0.70;0.70;;;;;;;;;;5056455;28;20202;-84
2022/05/25 10:49:13;;;;;;;0.95;0.95;;;;;;;;;;5056270;28;20205;-84
2022/05/25 10:51:46;;;;;;;0.77;0.77;;;;;;;;;;5055988;28;20225;-85
2022/05/25 10:57:32;;;;;;;0.80;0.80;;;;;;;;;;5056441;28;20232;-86
2022/05/25 11:00:06;;;;;;;0.82;0.82;;;;;;;;;;5056380;28;20209;-85
2022/05/25 11:02:53;;;;;;;1.38;0.82;;;;;;;;;;5055923;28;20225;-85
2022/05/25 11:05:26;;;;;;;0.70;0.70;;;;;;;;;;5055870;28;20591;-85
2022/05/25 11:08:00;;;;;;;0.60;0.60;;;;;;;;;;5056112;28;20197;-85
2022/05/25 11:10:41;;;;;;;0.82;0.82;;;;;;;;;;5057313;28;20208;-85
2022/05/25 11:13:36;;;;;;;1.10;1.00;;;;;;;;;;5055523;28;20240;-85
2022/05/25 11:16:20;;;;;;;0.90;0.90;;;;;;;;;;5055739;28;20201;-85
2022/05/25 11:19:01;;;;;;;0.63;0.63;;;;;;;;;;5056592;28;20233;-86
2022/05/25 11:21:40;;;;;;;0.70;0.70;;;;;;;;;;5055948;28;20193;-87
2022/05/25 11:24:24;;;;;;;0.70;0.70;;;;;;;;;;5055687;28;20209;-86
2022/05/25 11:27:06;;;;;;;0.60;0.60;;;;;;;;;;5037793;28;20213;-85
2022/05/25 11:29:53;;;;;;;0.70;0.70;;;;;;;;;;5035149;28;20296;-86
2022/05/25 11:32:27;;;;;;;0.80;0.80;;;;;;;;;;5037039;28;20226;-86
2022/05/25 11:35:17;;;;;;;0.63;0.63;;;;;;;;;;5035414;28;20202;-86
2022/05/25 11:37:57;;;;;;;1.45;0.70;;;;;;;;;;5036282;28;20309;-84
2022/05/25 11:40:42;;;;;;;1.20;0.75;;;;;;;;;;5037695;28;20234;-84
2022/05/25 11:43:56;;;;;;;0.43;0.43;;;;;;;;;;5035816;28;20686;-83
2022/05/25 11:46:39;;;;;;;0.95;0.95;;;;;;;;;;5035435;28;20202;-86
2022/05/25 11:49:42;;;;;;;0.73;0.73;;;;;;;;;;5035651;28;20622;-85
2022/05/25 11:52:46;;;;;;;0.73;0.40;;;;;;;;;;5025167;28;20230;-85
2022/05/25 11:55:21;;;;;;;0.50;0.50;;;;;;;;;;5025877;28;20233;-84
2022/05/25 11:58:04;;;;;;;0.60;0.60;;;;;;;;;;5035155;28;20358;-85
2022/05/25 12:00:54;;;;;;;0.82;0.82;;;;;;;;;;5036819;28;20234;-85
2022/05/25 12:03:49;;;;;;;0.40;0.40;;;;;;;;;;5036733;28;20415;-83
2022/05/25 12:06:59;;;;;;;0.50;0.50;;;;;;;;;;5036187;28;20624;-85
2022/05/25 12:09:46;;;;;;;0.88;0.60;;;;;;;;;;5005515;28;20236;-86
2022/05/25 12:12:20;;;;;;;0.60;0.60;;;;;;;;;;5035700;28;20261;-84
2022/05/25 12:14:58;;;;;;;0.70;0.70;;;;;;;;;;5036831;28;20692;-85
2022/05/25 12:17:32;;;;;;;1.20;1.08;;;;;;;;;;5036290;28;20209;-86
2022/05/25 12:20:02;;;;;;;2.58;0.65;;;;;;;;;;5036254;28;20198;-85
2022/05/25 12:22:34;;;;;;;0.57;0.40;;;;;;;;;;5036701;28;20222;-84
2022/05/25 12:25:06;;;;;;;0.50;0.50;;;;;;;;;;5038585;28;20658;-84
2022/05/25 12:27:46;;;;;;;0.60;0.60;;;;;;;;;;5056498;28;20201;-85
2022/05/25 12:30:18;;;;;;;0.50;0.40;;;;;;;;;;5055847;28;20570;-85
2022/05/25 12:32:46;;;;;;;0.63;0.52;;;;;;;;;;5056150;28;20257;-86
2022/05/25 12:35:16;;;;;;;0.40;0.40;;;;;;;;;;5056400;28;20206;-83
2022/05/25 12:37:47;;;;;;;0.30;0.30;;;;;;;;;;5055481;28;20241;-85
2022/05/25 12:40:16;;;;;;;0.30;0.30;;;;;;;;;;5056308;28;20204;-85
2022/05/25 12:42:45;;;;;;;0.38;0.38;;;;;;;;;;5054437;28;20245;-84
2022/05/25 12:48:52;;;;;;;0.32;0.32;;;;;;;;;;5059822;28;20201;-86
2022/05/25 12:51:36;;;;;;;0.63;0.40;;;;;;;;;;5058828;28;20208;-85
2022/05/25 12:54:06;;;;;;;0.75;0.73;;;;;;;;;;5058751;28;20213;-84
2022/05/25 12:56:37;;;;;;;0.50;0.50;;;;;;;;;;5045931;28;20293;-84
2022/05/25 12:59:09;;;;;;;0.30;0.30;;;;;;;;;;5040448;28;20710;-85
2022/05/25 13:01:38;;;;;;;0.40;0.40;;;;;;;;;;5039562;28;20222;-85
2022/05/25 13:04:48;;;;;;;1.65;0.40;;;;;;;;;;5039321;28;20277;-85
2022/05/25 13:07:45;;;;;;;0.55;0.55;;;;;;;;;;5041287;28;20269;-83
2022/05/25 13:11:00;;;;;;;0.40;0.40;;;;;;;;;;5039665;28;20209;-83
2022/05/25 13:13:40;;;;;;;0.55;0.55;;;;;;;;;;5039455;28;20230;-83
2022/05/25 13:16:08;;;;;;;0.40;0.40;;;;;;;;;;5040743;28;20626;-85
2022/05/25 13:18:54;;;;;;;0.40;0.40;;;;;;;;;;5039297;28;20214;-84
2022/05/25 13:21:40;;;;;;;0.40;0.40;;;;;;;;;;5039605;28;20632;-84
2022/05/25 13:24:28;;;;;;;0.50;0.50;;;;;;;;;;5039487;28;20850;-84
2022/05/25 13:27:53;;;;;;;0.40;0.40;;;;;;;;;;5056805;28;20263;-84
2022/05/25 13:30:32;;;;;;;0.40;0.40;;;;;;;;;;5058601;28;20197;-83
2022/05/25 13:33:01;;;;;;;0.43;0.43;;;;;;;;;;5058818;28;20229;-84
2022/05/25 13:35:45;;;;;;;3.58;0.75;;;;;;;;;;5059781;28;20271;-84
2022/05/25 13:38:22;;;;;;;0.40;0.40;;;;;;;;;;5058944;28;20216;-84
2022/05/25 13:40:56;;;;;;;0.80;0.80;;;;;;;;;;5059056;28;20206;-85
2022/05/25 13:43:49;;;;;;;0.50;0.50;;;;;;;;;;5059562;28;20225;-85
2022/05/25 13:46:39;;;;;;;0.47;0.47;;;;;;;;;;5059355;28;20553;-83
2022/05/25 13:49:10;;;;;;;0.40;0.40;;;;;;;;;;5060849;28;20194;-83
2022/05/25 13:51:38;;;;;;;0.47;0.47;;;;;;;;;;5059290;28;20222;-84
2022/05/25 13:54:24;;;;;;;0.55;0.55;;;;;;;;;;5059947;28;20202;-83
2022/05/25 13:56:53;;;;;;;0.43;0.43;;;;;;;;;;5058789;28;20213;-83
2022/05/25 13:59:28;;;;;;;0.35;0.35;;;;;;;;;;5058981;28;20227;-83
2022/05/25 14:02:11;;;;;;;0.70;0.70;;;;;;;;;;5059232;28;20221;-83
2022/05/25 14:04:39;;;;;;;0.50;0.50;;;;;;;;;;5059974;28;20337;-84
2022/05/25 14:07:06;;;;;;;0.40;0.40;;;;;;;;;;5059979;28;20212;-84
2022/05/25 14:12:23;;;;;;;0.40;0.40;;;;;;;;;;5058296;28;20228;-84
2022/05/25 14:14:56;;;;;;;0.50;0.50;;;;;;;;;;5059266;28;20208;-83
2022/05/25 14:17:26;;;;;;;0.40;0.40;;;;;;;;;;5059734;28;20243;-83
2022/05/25 14:19:57;;;;;;;0.65;0.50;;;;;;;;;;5059569;28;20275;-84
2022/05/25 14:22:27;;;;;;;0.40;0.40;;;;;;;;;;5061731;28;20241;-85
2022/05/25 14:24:58;;;;;;;0.30;0.30;;;;;;;;;;5060366;28;20207;-85
2022/05/25 14:27:30;;;;;;;0.68;0.68;;;;;;;;;;5060635;28;20205;-85
2022/05/25 14:30:04;;;;;;;0.50;0.50;;;;;;;;;;5060566;28;20564;-86
2022/05/25 14:32:34;;;;;;;0.50;0.43;;;;;;;;;;5059053;28;20727;-86
2022/05/25 14:35:06;;;;;;;0.50;0.50;;;;;;;;;;5058701;28;20208;-86
2022/05/25 14:37:38;;;;;;;0.60;0.60;;;;;;;;;;5059735;28;20201;-86
2022/05/25 14:40:10;;;;;;;0.40;0.40;;;;;;;;;;5058323;28;20224;-86
2022/05/25 14:42:54;;;;;;;0.60;0.60;;;;;;;;;;5040036;28;20260;-85
2022/05/25 14:45:21;;;;;;;0.55;0.55;;;;;;;;;;5057396;28;20185;-86
2022/05/25 14:47:51;;;;;;;1.80;1.10;;;;;;;;;;5058635;28;20197;-87
2022/05/25 14:50:21;;;;;;;0.40;0.40;;;;;;;;;;5058905;28;20194;-86
2022/05/25 14:52:57;;;;;;;0.40;0.40;;;;;;;;;;5057997;28;20237;-87
2022/05/25 14:55:32;;;;;;;0.30;0.30;;;;;;;;;;5052877;28;20551;-86
2022/05/25 14:58:12;;;;;;;1.45;0.40;;;;;;;;;;5037268;28;20185;-85
2022/05/25 15:00:42;;;;;;;0.50;0.50;;;;;;;;;;5037915;28;20245;-86
2022/05/25 15:03:10;;;;;;;0.50;0.50;;;;;;;;;;5037970;28;20445;-85
2022/05/25 15:05:46;;;;;;;0.60;0.60;;;;;;;;;;5039291;28;20267;-86
2022/05/25 15:08:31;;;;;;;0.50;0.50;;;;;;;;;;5038377;28;20210;-86
2022/05/25 15:11:35;;;;;;;0.50;0.50;;;;;;;;;;5037213;28;20202;-87
2022/05/25 15:19:45;;;;;;;0.47;0.40;;;;;;;;;;5055196;28;20225;-81
2022/05/25 15:22:15;;;;;;;0.50;0.50;;;;;;;;;;5054318;28;20556;-81
2022/05/25 15:24:43;;;;;;;0.30;0.30;;;;;;;;;;5055589;28;20201;-81
2022/05/25 15:27:23;;;;;;;0.40;0.40;;;;;;;;;;5035076;28;20198;-81
2022/05/25 15:29:54;;;;;;;0.38;0.38;;;;;;;;;;5034670;28;20240;-81
2022/05/25 15:32:22;;;;;;;0.50;0.50;;;;;;;;;;5034938;28;20296;-82
2022/05/25 15:34:49;;;;;;;0.40;0.40;;;;;;;;;;5071796;22;20580;-83
2022/05/25 15:37:22;;;;;;;1.60;0.52;;;;;;;;;;5061069;28;20201;-83
2022/05/25 15:39:49;;;;;;;0.57;0.57;;;;;;;;;;5059669;28;20732;-83
2022/05/25 15:42:16;;;;;;;0.40;0.40;;;;;;;;;;5060886;28;20202;-83
2022/05/25 15:44:44;;;;;;;0.40;0.40;;;;;;;;;;5059275;28;20225;-82
2022/05/25 15:47:16;;;;;;;0.40;0.40;;;;;;;;;;5059965;28;20193;-82
2022/05/25 15:49:44;;;;;;;0.40;0.40;;;;;;;;;;5061522;28;20213;-82
2022/05/25 15:52:12;;;;;;;0.47;0.47;;;;;;;;;;5065590;28;20208;-83
2022/05/25 15:54:39;;;;;;;0.40;0.40;;;;;;;;;;5061206;28;20237;-82
2022/05/25 15:57:07;;;;;;;0.30;0.30;;;;;;;;;;5071316;28;20263;-82
2022/05/25 15:59:37;;;;;;;0.50;0.40;;;;;;;;;;5079882;28;20197;-82
2022/05/25 16:02:07;;;;;;;0.30;0.30;;;;;;;;;;5083002;28;20288;-82